sensor_id;sensor_type;location;lat;lon;timestamp;temperature;humidity
55026;DHT22;40925;45.666;18.994;2023-12-20T00:01:47;51.50;2227.20
55026;DHT22;40925;45.666;18.994;2023-12-20T00:04:13;51.50;2227.20
55026;DHT22;40925;45.666;18.994;2023-12-20T00:06:39;51.50;2227.20
55026;DHT22;40925;45.666;18.994;2023-12-20T00:09:04;51.50;2227.20
55026;DHT22;40925;45.666;18.994;2023-12-20T00:11:30;51.40;2227.20
55026;DHT22;40925;45.666;18.994;2023-12-20T00:13:56;51.40;2227.20
55026;DHT22;40925;45.666;18.994;2023-12-20T00:16:21;51.40;2227.20
55026;DHT22;40925;45.666;18.994;2023-12-20T00:18:50;51.40;2227.20
55026;DHT22;40925;45.666;18.994;2023-12-20T00:21:16;51.40;2227.20
55026;DHT22;40925;45.666;18.994;2023-12-20T00:23:41;51.30;2227.20
55026;DHT22;40925;45.666;18.994;2023-12-20T00:26:07;51.30;2227.20
55026;DHT22;40925;45.666;18.994;2023-12-20T00:28:33;51.30;2227.20
55026;DHT22;40925;45.666;18.994;2023-12-20T00:30:58;51.30;2227.20
55026;DHT22;40925;45.666;18.994;2023-12-20T00:33:24;51.30;2227.20
55026;DHT22;40925;45.666;18.994;2023-12-20T00:35:50;51.20;2227.20
55026;DHT22;40925;45.666;18.994;2023-12-20T00:38:15;51.20;2227.20
55026;DHT22;40925;45.666;18.994;2023-12-20T00:40:41;26.50;2201.60
55026;DHT22;40925;45.666;18.994;2023-12-20T00:43:07;26.40;2201.60
55026;DHT22;40925;45.666;18.994;2023-12-20T00:45:32;26.40;2201.60
55026;DHT22;40925;45.666;18.994;2023-12-20T00:47:58;26.40;2201.60
55026;DHT22;40925;45.666;18.994;2023-12-20T00:50:27;26.40;2201.60
55026;DHT22;40925;45.666;18.994;2023-12-20T00:52:53;26.30;2201.60
55026;DHT22;40925;45.666;18.994;2023-12-20T00:55:20;26.20;2201.60
55026;DHT22;40925;45.666;18.994;2023-12-20T00:57:45;26.30;2201.60
55026;DHT22;40925;45.666;18.994;2023-12-20T01:00:12;26.20;2201.60
55026;DHT22;40925;45.666;18.994;2023-12-20T01:02:38;26.20;2201.60
55026;DHT22;40925;45.666;18.994;2023-12-20T01:05:04;26.10;2201.60
55026;DHT22;40925;45.666;18.994;2023-12-20T01:07:30;26.10;2201.60
55026;DHT22;40925;45.666;18.994;2023-12-20T01:09:56;26.10;2201.60
55026;DHT22;40925;45.666;18.994;2023-12-20T01:12:22;26.10;2201.60
55026;DHT22;40925;45.666;18.994;2023-12-20T01:14:47;26.10;2201.60
55026;DHT22;40925;45.666;18.994;2023-12-20T01:17:13;26.10;2201.60
55026;DHT22;40925;45.666;18.994;2023-12-20T01:19:39;26.10;2201.60
55026;DHT22;40925;45.666;18.994;2023-12-20T01:22:04;26.10;2201.60
55026;DHT22;40925;45.666;18.994;2023-12-20T01:24:30;26.10;2201.60
55026;DHT22;40925;45.666;18.994;2023-12-20T01:26:56;26.10;2201.60
55026;DHT22;40925;45.666;18.994;2023-12-20T01:29:21;26.00;2201.60
55026;DHT22;40925;45.666;18.994;2023-12-20T01:31:47;26.00;2201.60
55026;DHT22;40925;45.666;18.994;2023-12-20T01:34:13;26.00;2201.60
55026;DHT22;40925;45.666;18.994;2023-12-20T01:36:38;26.00;2201.60
55026;DHT22;40925;45.666;18.994;2023-12-20T01:39:04;25.90;2201.60
55026;DHT22;40925;45.666;18.994;2023-12-20T01:41:30;25.90;2201.60
55026;DHT22;40925;45.666;18.994;2023-12-20T01:43:56;25.90;2201.60
55026;DHT22;40925;45.666;18.994;2023-12-20T01:46:21;25.90;2201.60
55026;DHT22;40925;45.666;18.994;2023-12-20T01:48:48;25.90;2201.60
55026;DHT22;40925;45.666;18.994;2023-12-20T01:51:15;25.90;2201.60
55026;DHT22;40925;45.666;18.994;2023-12-20T01:53:41;25.80;2201.60
55026;DHT22;40925;45.666;18.994;2023-12-20T01:56:08;25.70;2201.60
55026;DHT22;40925;45.666;18.994;2023-12-20T01:58:34;25.70;2201.60
55026;DHT22;40925;45.666;18.994;2023-12-20T02:01:00;25.70;2201.60
55026;DHT22;40925;45.666;18.994;2023-12-20T02:03:29;25.70;2201.60
55026;DHT22;40925;45.666;18.994;2023-12-20T02:05:54;25.60;2201.60
55026;DHT22;40925;45.666;18.994;2023-12-20T02:08:20;25.60;2201.60
55026;DHT22;40925;45.666;18.994;2023-12-20T02:10:46;0.90;2201.60
55026;DHT22;40925;45.666;18.994;2023-12-20T02:13:15;0.90;2201.60
55026;DHT22;40925;45.666;18.994;2023-12-20T02:15:41;0.90;2201.60
55026;DHT22;40925;45.666;18.994;2023-12-20T02:18:09;0.80;2201.60
55026;DHT22;40925;45.666;18.994;2023-12-20T02:20:34;0.80;2201.60
55026;DHT22;40925;45.666;18.994;2023-12-20T02:23:00;0.70;2201.60
55026;DHT22;40925;45.666;18.994;2023-12-20T02:25:26;0.60;2201.60
55026;DHT22;40925;45.666;18.994;2023-12-20T02:27:52;0.70;2201.60
55026;DHT22;40925;45.666;18.994;2023-12-20T02:30:18;0.60;2201.60
55026;DHT22;40925;45.666;18.994;2023-12-20T02:32:43;0.60;2201.60
55026;DHT22;40925;45.666;18.994;2023-12-20T02:35:09;0.50;2201.60
55026;DHT22;40925;45.666;18.994;2023-12-20T02:37:34;0.50;2201.60
55026;DHT22;40925;45.666;18.994;2023-12-20T02:40:00;0.40;2201.60
55026;DHT22;40925;45.666;18.994;2023-12-20T02:42:26;0.30;2201.60
55026;DHT22;40925;45.666;18.994;2023-12-20T02:44:51;0.30;2201.60
55026;DHT22;40925;45.666;18.994;2023-12-20T02:47:17;0.70;2201.60
55026;DHT22;40925;45.666;18.994;2023-12-20T02:49:43;0.10;2201.60
55026;DHT22;40925;45.666;18.994;2023-12-20T02:52:09;0.20;2201.60
55026;DHT22;40925;45.666;18.994;2023-12-20T02:54:34;0.20;2201.60
55026;DHT22;40925;45.666;18.994;2023-12-20T02:57:00;0.20;2201.60
55026;DHT22;40925;45.666;18.994;2023-12-20T02:59:26;0.20;2201.60
55026;DHT22;40925;45.666;18.994;2023-12-20T03:01:51;0.20;2201.60
55026;DHT22;40925;45.666;18.994;2023-12-20T03:04:20;0.20;2201.60
55026;DHT22;40925;45.666;18.994;2023-12-20T03:06:46;0.10;2201.60
55026;DHT22;40925;45.666;18.994;2023-12-20T03:09:11;0.10;2201.60
55026;DHT22;40925;45.666;18.994;2023-12-20T03:11:37;0.00;2201.60
55026;DHT22;40925;45.666;18.994;2023-12-20T03:14:03;0.00;2201.60
55026;DHT22;40925;45.666;18.994;2023-12-20T03:16:29;0.00;2201.60
55026;DHT22;40925;45.666;18.994;2023-12-20T03:18:54;12.90;2201.60
55026;DHT22;40925;45.666;18.994;2023-12-20T03:21:20;12.90;2201.60
55026;DHT22;40925;45.666;18.994;2023-12-20T03:23:46;0.00;2201.60
55026;DHT22;40925;45.666;18.994;2023-12-20T03:26:11;0.00;2201.60
55026;DHT22;40925;45.666;18.994;2023-12-20T03:28:37;0.00;2201.60
55026;DHT22;40925;45.666;18.994;2023-12-20T03:31:03;0.10;2201.60
55026;DHT22;40925;45.666;18.994;2023-12-20T03:33:29;0.00;2201.60
55026;DHT22;40925;45.666;18.994;2023-12-20T03:35:55;0.10;2201.60
55026;DHT22;40925;45.666;18.994;2023-12-20T03:38:21;0.10;2201.60
55026;DHT22;40925;45.666;18.994;2023-12-20T03:40:49;0.00;2201.60
55026;DHT22;40925;45.666;18.994;2023-12-20T03:43:15;0.00;2201.60
55026;DHT22;40925;45.666;18.994;2023-12-20T03:45:42;0.00;2201.60
55026;DHT22;40925;45.666;18.994;2023-12-20T03:48:08;0.00;2201.60
55026;DHT22;40925;45.666;18.994;2023-12-20T03:50:35;0.00;2201.60
55026;DHT22;40925;45.666;18.994;2023-12-20T03:53:01;0.00;2201.60
55026;DHT22;40925;45.666;18.994;2023-12-20T03:55:27;0.00;2201.60
55026;DHT22;40925;45.666;18.994;2023-12-20T03:57:53;13.00;2201.60
55026;DHT22;40925;45.666;18.994;2023-12-20T04:00:19;12.90;2201.60
55026;DHT22;40925;45.666;18.994;2023-12-20T04:02:45;12.90;2201.60
55026;DHT22;40925;45.666;18.994;2023-12-20T04:05:10;12.90;2201.60
55026;DHT22;40925;45.666;18.994;2023-12-20T04:07:36;12.90;2201.60
55026;DHT22;40925;45.666;18.994;2023-12-20T04:10:03;13.00;2201.60
55026;DHT22;40925;45.666;18.994;2023-12-20T04:12:29;13.00;2201.60
55026;DHT22;40925;45.666;18.994;2023-12-20T04:14:55;13.00;2201.60
55026;DHT22;40925;45.666;18.994;2023-12-20T04:17:21;13.00;2201.60
55026;DHT22;40925;45.666;18.994;2023-12-20T04:19:50;13.10;2201.60
55026;DHT22;40925;45.666;18.994;2023-12-20T04:22:17;13.10;2201.60
55026;DHT22;40925;45.666;18.994;2023-12-20T04:24:43;13.10;2201.60
55026;DHT22;40925;45.666;18.994;2023-12-20T04:27:09;13.20;2201.60
55026;DHT22;40925;45.666;18.994;2023-12-20T04:29:37;13.30;2201.60
55026;DHT22;40925;45.666;18.994;2023-12-20T04:32:04;13.30;2201.60
55026;DHT22;40925;45.666;18.994;2023-12-20T04:34:30;13.30;2201.60
55026;DHT22;40925;45.666;18.994;2023-12-20T04:36:58;13.40;2201.60
55026;DHT22;40925;45.666;18.994;2023-12-20T04:39:24;13.40;2201.60
55026;DHT22;40925;45.666;18.994;2023-12-20T04:41:50;13.40;2201.60
55026;DHT22;40925;45.666;18.994;2023-12-20T04:44:16;13.50;2201.60
55026;DHT22;40925;45.666;18.994;2023-12-20T04:46:41;13.50;2201.60
55026;DHT22;40925;45.666;18.994;2023-12-20T04:49:07;13.60;2201.60
55026;DHT22;40925;45.666;18.994;2023-12-20T04:51:34;13.50;2201.60
55026;DHT22;40925;45.666;18.994;2023-12-20T04:54:00;13.60;2201.60
55026;DHT22;40925;45.666;18.994;2023-12-20T04:56:26;13.60;2201.60
55026;DHT22;40925;45.666;18.994;2023-12-20T04:58:52;13.70;2201.60
55026;DHT22;40925;45.666;18.994;2023-12-20T05:01:17;38.40;2201.60
55026;DHT22;40925;45.666;18.994;2023-12-20T05:03:43;38.40;2201.60
55026;DHT22;40925;45.666;18.994;2023-12-20T05:06:10;38.40;2201.60
55026;DHT22;40925;45.666;18.994;2023-12-20T05:08:35;38.40;2201.60
55026;DHT22;40925;45.666;18.994;2023-12-20T05:11:01;38.50;2201.60
55026;DHT22;40925;45.666;18.994;2023-12-20T05:13:27;38.50;2201.60
55026;DHT22;40925;45.666;18.994;2023-12-20T05:15:53;38.50;2201.60
55026;DHT22;40925;45.666;18.994;2023-12-20T05:18:18;38.40;2201.60
55026;DHT22;40925;45.666;18.994;2023-12-20T05:20:44;38.50;2201.60
55026;DHT22;40925;45.666;18.994;2023-12-20T05:23:11;38.50;2201.60
55026;DHT22;40925;45.666;18.994;2023-12-20T05:25:38;38.50;2201.60
55026;DHT22;40925;45.666;18.994;2023-12-20T05:28:04;38.60;2201.60
55026;DHT22;40925;45.666;18.994;2023-12-20T05:30:30;38.60;2201.60
55026;DHT22;40925;45.666;18.994;2023-12-20T05:32:56;38.50;2201.60
55026;DHT22;40925;45.666;18.994;2023-12-20T05:35:21;38.80;2201.60
55026;DHT22;40925;45.666;18.994;2023-12-20T05:37:51;38.60;2201.60
55026;DHT22;40925;45.666;18.994;2023-12-20T05:40:17;38.50;2201.60
55026;DHT22;40925;45.666;18.994;2023-12-20T05:42:42;38.60;2201.60
55026;DHT22;40925;45.666;18.994;2023-12-20T05:45:09;38.50;2201.60
55026;DHT22;40925;45.666;18.994;2023-12-20T05:47:38;38.50;2201.60
55026;DHT22;40925;45.666;18.994;2023-12-20T05:50:03;38.50;2201.60
55026;DHT22;40925;45.666;18.994;2023-12-20T05:52:30;38.40;2201.60
55026;DHT22;40925;45.666;18.994;2023-12-20T05:54:55;38.40;2201.60
55026;DHT22;40925;45.666;18.994;2023-12-20T05:57:23;38.50;2201.60
55026;DHT22;40925;45.666;18.994;2023-12-20T05:59:49;38.50;2201.60
55026;DHT22;40925;45.666;18.994;2023-12-20T06:02:14;38.50;2201.60
55026;DHT22;40925;45.666;18.994;2023-12-20T06:04:42;38.50;2201.60
55026;DHT22;40925;45.666;18.994;2023-12-20T06:07:15;38.50;2201.60
55026;DHT22;40925;45.666;18.994;2023-12-20T06:09:41;38.50;2201.60
55026;DHT22;40925;45.666;18.994;2023-12-20T06:12:07;38.50;2201.60
55026;DHT22;40925;45.666;18.994;2023-12-20T06:14:34;38.40;2201.60
55026;DHT22;40925;45.666;18.994;2023-12-20T06:17:00;38.50;2201.60
55026;DHT22;40925;45.666;18.994;2023-12-20T06:19:27;38.50;2201.60
55026;DHT22;40925;45.666;18.994;2023-12-20T06:21:56;38.50;2201.60
55026;DHT22;40925;45.666;18.994;2023-12-20T06:24:22;38.40;2201.60
55026;DHT22;40925;45.666;18.994;2023-12-20T06:26:48;38.40;2201.60
55026;DHT22;40925;45.666;18.994;2023-12-20T06:29:13;38.40;2201.60
55026;DHT22;40925;45.666;18.994;2023-12-20T06:31:39;38.50;2201.60
55026;DHT22;40925;45.666;18.994;2023-12-20T06:34:07;38.50;2201.60
55026;DHT22;40925;45.666;18.994;2023-12-20T06:36:33;38.60;2201.60
55026;DHT22;40925;45.666;18.994;2023-12-20T06:38:59;38.50;2201.60
55026;DHT22;40925;45.666;18.994;2023-12-20T06:41:24;38.60;2201.60
55026;DHT22;40925;45.666;18.994;2023-12-20T06:43:50;38.50;2201.60
55026;DHT22;40925;45.666;18.994;2023-12-20T06:46:18;38.50;2201.60
55026;DHT22;40925;45.666;18.994;2023-12-20T06:48:44;38.40;2201.60
55026;DHT22;40925;45.666;18.994;2023-12-20T06:51:17;38.40;2201.60
55026;DHT22;40925;45.666;18.994;2023-12-20T06:53:45;13.70;2201.60
55026;DHT22;40925;45.666;18.994;2023-12-20T06:56:12;13.70;2201.60
55026;DHT22;40925;45.666;18.994;2023-12-20T06:58:38;13.70;2201.60
55026;DHT22;40925;45.666;18.994;2023-12-20T07:01:04;13.70;2201.60
55026;DHT22;40925;45.666;18.994;2023-12-20T07:03:30;13.70;2201.60
55026;DHT22;40925;45.666;18.994;2023-12-20T07:05:56;13.60;2201.60
55026;DHT22;40925;45.666;18.994;2023-12-20T07:08:22;13.60;2201.60
55026;DHT22;40925;45.666;18.994;2023-12-20T07:10:48;13.70;2201.60
55026;DHT22;40925;45.666;18.994;2023-12-20T07:13:13;13.70;2201.60
55026;DHT22;40925;45.666;18.994;2023-12-20T07:15:39;13.70;2201.60
55026;DHT22;40925;45.666;18.994;2023-12-20T07:18:05;38.40;2201.60
55026;DHT22;40925;45.666;18.994;2023-12-20T07:20:31;38.40;2201.60
55026;DHT22;40925;45.666;18.994;2023-12-20T07:22:57;38.40;2201.60
55026;DHT22;40925;45.666;18.994;2023-12-20T07:25:26;38.40;2201.60
55026;DHT22;40925;45.666;18.994;2023-12-20T07:27:52;38.40;2201.60
55026;DHT22;40925;45.666;18.994;2023-12-20T07:30:17;13.70;2201.60
55026;DHT22;40925;45.666;18.994;2023-12-20T07:32:45;13.70;2201.60
55026;DHT22;40925;45.666;18.994;2023-12-20T07:35:12;13.60;2201.60
55026;DHT22;40925;45.666;18.994;2023-12-20T07:37:38;13.60;2201.60
55026;DHT22;40925;45.666;18.994;2023-12-20T07:40:04;13.50;2201.60
55026;DHT22;40925;45.666;18.994;2023-12-20T07:42:30;13.50;2201.60
55026;DHT22;40925;45.666;18.994;2023-12-20T07:44:56;13.50;2201.60
55026;DHT22;40925;45.666;18.994;2023-12-20T07:47:21;13.40;2201.60
55026;DHT22;40925;45.666;18.994;2023-12-20T07:49:48;13.30;2201.60
55026;DHT22;40925;45.666;18.994;2023-12-20T07:52:14;13.30;2201.60
55026;DHT22;40925;45.666;18.994;2023-12-20T07:54:40;13.30;2201.60
55026;DHT22;40925;45.666;18.994;2023-12-20T07:57:06;13.20;2201.60
55026;DHT22;40925;45.666;18.994;2023-12-20T07:59:31;13.20;2201.60
55026;DHT22;40925;45.666;18.994;2023-12-20T08:01:57;13.20;2201.60
55026;DHT22;40925;45.666;18.994;2023-12-20T08:04:26;13.20;2201.60
55026;DHT22;40925;45.666;18.994;2023-12-20T08:06:51;13.20;2201.60
55026;DHT22;40925;45.666;18.994;2023-12-20T08:09:17;13.10;2201.60
55026;DHT22;40925;45.666;18.994;2023-12-20T08:11:46;13.10;2201.60
55026;DHT22;40925;45.666;18.994;2023-12-20T08:14:12;0.00;2201.60
55026;DHT22;40925;45.666;18.994;2023-12-20T08:16:39;0.00;2201.60
55026;DHT22;40925;45.666;18.994;2023-12-20T08:19:04;13.10;2201.60
55026;DHT22;40925;45.666;18.994;2023-12-20T08:21:31;0.10;2201.60
55026;DHT22;40925;45.666;18.994;2023-12-20T08:23:59;0.20;2201.60
55026;DHT22;40925;45.666;18.994;2023-12-20T08:26:26;0.50;2201.60
55026;DHT22;40925;45.666;18.994;2023-12-20T08:28:52;0.30;2201.60
55026;DHT22;40925;45.666;18.994;2023-12-20T08:31:18;0.40;2201.60
55026;DHT22;40925;45.666;18.994;2023-12-20T08:33:45;0.50;2201.60
55026;DHT22;40925;45.666;18.994;2023-12-20T08:36:11;0.50;2201.60
55026;DHT22;40925;45.666;18.994;2023-12-20T08:38:37;0.40;2201.60
55026;DHT22;40925;45.666;18.994;2023-12-20T08:41:07;0.20;2201.60
55026;DHT22;40925;45.666;18.994;2023-12-20T08:43:34;0.10;2201.60
55026;DHT22;40925;45.666;18.994;2023-12-20T08:46:00;0.00;2201.60
55026;DHT22;40925;45.666;18.994;2023-12-20T08:48:28;0.10;2201.60
55026;DHT22;40925;45.666;18.994;2023-12-20T08:50:57;0.20;2201.60
55026;DHT22;40925;45.666;18.994;2023-12-20T08:53:22;0.30;2201.60
55026;DHT22;40925;45.666;18.994;2023-12-20T08:55:48;0.30;2201.60
55026;DHT22;40925;45.666;18.994;2023-12-20T08:58:14;0.50;2201.60
55026;DHT22;40925;45.666;18.994;2023-12-20T09:00:40;0.50;2201.60
55026;DHT22;40925;45.666;18.994;2023-12-20T09:03:09;0.50;2201.60
55026;DHT22;40925;45.666;18.994;2023-12-20T09:05:35;0.50;2201.60
55026;DHT22;40925;45.666;18.994;2023-12-20T09:08:01;0.70;2201.60
55026;DHT22;40925;45.666;18.994;2023-12-20T09:10:26;0.60;2201.60
55026;DHT22;40925;45.666;18.994;2023-12-20T09:12:55;0.60;2201.60
55026;DHT22;40925;45.666;18.994;2023-12-20T09:15:26;0.60;2201.60
55026;DHT22;40925;45.666;18.994;2023-12-20T09:17:52;0.70;2201.60
55026;DHT22;40925;45.666;18.994;2023-12-20T09:20:21;0.60;2201.60
55026;DHT22;40925;45.666;18.994;2023-12-20T09:22:51;0.60;2201.60
55026;DHT22;40925;45.666;18.994;2023-12-20T09:25:20;0.50;2201.60
55026;DHT22;40925;45.666;18.994;2023-12-20T09:27:45;0.30;2201.60
55026;DHT22;40925;45.666;18.994;2023-12-20T09:30:12;0.30;2201.60
55026;DHT22;40925;45.666;18.994;2023-12-20T09:32:38;0.20;2201.60
55026;DHT22;40925;45.666;18.994;2023-12-20T09:35:04;0.30;2201.60
55026;DHT22;40925;45.666;18.994;2023-12-20T09:37:31;0.40;2201.60
55026;DHT22;40925;45.666;18.994;2023-12-20T09:39:57;0.50;2201.60
55026;DHT22;40925;45.666;18.994;2023-12-20T09:45:09;0.60;2201.60
55026;DHT22;40925;45.666;18.994;2023-12-20T09:47:35;0.80;2201.60
55026;DHT22;40925;45.666;18.994;2023-12-20T09:50:02;0.80;2201.60
55026;DHT22;40925;45.666;18.994;2023-12-20T09:52:28;0.90;2201.60
55026;DHT22;40925;45.666;18.994;2023-12-20T09:54:56;25.60;2201.60
55026;DHT22;40925;45.666;18.994;2023-12-20T09:57:24;25.70;2201.60
55026;DHT22;40925;45.666;18.994;2023-12-20T09:59:50;25.90;2201.60
55026;DHT22;40925;45.666;18.994;2023-12-20T10:02:18;25.90;2201.60
55026;DHT22;40925;45.666;18.994;2023-12-20T10:04:47;26.00;2201.60
55026;DHT22;40925;45.666;18.994;2023-12-20T10:07:13;25.90;2201.60
55026;DHT22;40925;45.666;18.994;2023-12-20T10:09:39;25.90;2201.60
55026;DHT22;40925;45.666;18.994;2023-12-20T10:12:08;25.90;2201.60
55026;DHT22;40925;45.666;18.994;2023-12-20T10:14:34;26.00;2201.60
55026;DHT22;40925;45.666;18.994;2023-12-20T10:17:04;26.00;2201.60
55026;DHT22;40925;45.666;18.994;2023-12-20T10:19:30;26.00;2201.60
55026;DHT22;40925;45.666;18.994;2023-12-20T10:21:56;26.00;2201.60
55026;DHT22;40925;45.666;18.994;2023-12-20T10:24:22;26.00;2201.60
55026;DHT22;40925;45.666;18.994;2023-12-20T10:27:04;26.10;2201.60
55026;DHT22;40925;45.666;18.994;2023-12-20T10:29:37;26.30;2201.60
55026;DHT22;40925;45.666;18.994;2023-12-20T10:32:26;26.20;2201.60
55026;DHT22;40925;45.666;18.994;2023-12-20T10:34:53;26.30;2201.60
55026;DHT22;40925;45.666;18.994;2023-12-20T10:37:19;26.30;2201.60
55026;DHT22;40925;45.666;18.994;2023-12-20T10:39:53;26.40;2201.60
55026;DHT22;40925;45.666;18.994;2023-12-20T10:42:28;26.20;2201.60
55026;DHT22;40925;45.666;18.994;2023-12-20T10:44:55;26.20;2201.60
55026;DHT22;40925;45.666;18.994;2023-12-20T10:47:20;26.10;2201.60
55026;DHT22;40925;45.666;18.994;2023-12-20T10:49:46;26.10;2201.60
55026;DHT22;40925;45.666;18.994;2023-12-20T10:52:13;26.00;2201.60
55026;DHT22;40925;45.666;18.994;2023-12-20T10:54:43;26.10;2201.60
55026;DHT22;40925;45.666;18.994;2023-12-20T10:57:09;26.00;2201.60
55026;DHT22;40925;45.666;18.994;2023-12-20T10:59:36;25.90;2201.60
55026;DHT22;40925;45.666;18.994;2023-12-20T11:02:06;26.10;2201.60
55026;DHT22;40925;45.666;18.994;2023-12-20T11:04:47;26.00;2201.60
55026;DHT22;40925;45.666;18.994;2023-12-20T11:07:43;26.10;2201.60
55026;DHT22;40925;45.666;18.994;2023-12-20T11:10:26;26.10;2201.60
55026;DHT22;40925;45.666;18.994;2023-12-20T11:13:10;26.30;2201.60
55026;DHT22;40925;45.666;18.994;2023-12-20T11:15:37;26.40;2201.60
55026;DHT22;40925;45.666;18.994;2023-12-20T11:18:07;26.50;2201.60
55026;DHT22;40925;45.666;18.994;2023-12-20T11:20:38;26.40;2201.60
55026;DHT22;40925;45.666;18.994;2023-12-20T11:23:05;51.20;2227.20
55026;DHT22;40925;45.666;18.994;2023-12-20T11:25:46;51.30;2227.20
55026;DHT22;40925;45.666;18.994;2023-12-20T11:28:13;51.30;2227.20
55026;DHT22;40925;45.666;18.994;2023-12-20T11:30:49;51.30;2227.20
55026;DHT22;40925;45.666;18.994;2023-12-20T11:33:15;51.40;2227.20
55026;DHT22;40925;45.666;18.994;2023-12-20T11:35:42;51.50;2227.20
55026;DHT22;40925;45.666;18.994;2023-12-20T11:38:10;51.50;2227.20
55026;DHT22;40925;45.666;18.994;2023-12-20T11:40:37;51.50;2227.20
55026;DHT22;40925;45.666;18.994;2023-12-20T11:43:03;51.60;2227.20
55026;DHT22;40925;45.666;18.994;2023-12-20T11:45:31;51.50;2227.20
55026;DHT22;40925;45.666;18.994;2023-12-20T11:47:57;51.70;2227.20
55026;DHT22;40925;45.666;18.994;2023-12-20T11:50:24;51.90;2227.20
55026;DHT22;40925;45.666;18.994;2023-12-20T11:52:52;52.00;2227.20
55026;DHT22;40925;45.666;18.994;2023-12-20T11:55:19;52.10;2227.20
55026;DHT22;40925;45.666;18.994;2023-12-20T11:57:44;52.00;2227.20
55026;DHT22;40925;45.666;18.994;2023-12-20T12:00:10;52.10;2227.20
55026;DHT22;40925;45.666;18.994;2023-12-20T12:02:36;52.00;2227.20
55026;DHT22;40925;45.666;18.994;2023-12-20T12:05:02;52.00;2227.20
55026;DHT22;40925;45.666;18.994;2023-12-20T12:07:31;51.90;2227.20
55026;DHT22;40925;45.666;18.994;2023-12-20T12:10:00;51.80;2227.20
55026;DHT22;40925;45.666;18.994;2023-12-20T12:12:26;51.80;2227.20
55026;DHT22;40925;45.666;18.994;2023-12-20T12:14:53;51.80;2227.20
55026;DHT22;40925;45.666;18.994;2023-12-20T12:17:20;51.80;2227.20
55026;DHT22;40925;45.666;18.994;2023-12-20T12:19:45;51.70;2227.20
55026;DHT22;40925;45.666;18.994;2023-12-20T12:22:14;51.70;2227.20
55026;DHT22;40925;45.666;18.994;2023-12-20T12:24:44;51.60;2227.20
55026;DHT22;40925;45.666;18.994;2023-12-20T12:27:11;51.70;2227.20
55026;DHT22;40925;45.666;18.994;2023-12-20T12:29:37;51.80;2227.20
55026;DHT22;40925;45.666;18.994;2023-12-20T12:32:06;51.70;2227.20
55026;DHT22;40925;45.666;18.994;2023-12-20T12:34:32;51.70;2227.20
55026;DHT22;40925;45.666;18.994;2023-12-20T12:36:59;51.90;2227.20
55026;DHT22;40925;45.666;18.994;2023-12-20T12:39:25;52.00;2227.20
55026;DHT22;40925;45.666;18.994;2023-12-20T12:41:51;76.80;2227.20
55026;DHT22;40925;45.666;18.994;2023-12-20T12:44:17;52.10;2227.20
55026;DHT22;40925;45.666;18.994;2023-12-20T12:46:46;76.80;2227.20
55026;DHT22;40925;45.666;18.994;2023-12-20T12:49:15;52.10;2227.20
55026;DHT22;40925;45.666;18.994;2023-12-20T12:51:40;76.90;2227.20
55026;DHT22;40925;45.666;18.994;2023-12-20T12:54:06;77.00;2227.20
55026;DHT22;40925;45.666;18.994;2023-12-20T12:56:32;77.10;2227.20
55026;DHT22;40925;45.666;18.994;2023-12-20T12:58:58;77.20;2227.20
55026;DHT22;40925;45.666;18.994;2023-12-20T13:01:24;77.20;2227.20
55026;DHT22;40925;45.666;18.994;2023-12-20T13:03:50;77.30;2227.20
55026;DHT22;40925;45.666;18.994;2023-12-20T13:06:15;77.50;2227.20
55026;DHT22;40925;45.666;18.994;2023-12-20T13:08:41;77.40;2227.20
55026;DHT22;40925;45.666;18.994;2023-12-20T13:11:07;77.60;2227.20
55026;DHT22;40925;45.666;18.994;2023-12-20T13:13:33;77.60;2227.20
55026;DHT22;40925;45.666;18.994;2023-12-20T13:15:58;102.50;2227.20
55026;DHT22;40925;45.666;18.994;2023-12-20T13:18:24;102.90;2227.20
55026;DHT22;40925;45.666;18.994;2023-12-20T13:20:50;128.00;2252.80
55026;DHT22;40925;45.666;18.994;2023-12-20T13:23:16;128.60;2252.80
55026;DHT22;40925;45.666;18.994;2023-12-20T13:25:43;153.60;2252.80
55026;DHT22;40925;45.666;18.994;2023-12-20T13:30:37;179.30;2252.80
55026;DHT22;40925;45.666;18.994;2023-12-20T13:33:04;179.40;2252.80
55026;DHT22;40925;45.666;18.994;2023-12-20T13:35:31;179.70;2252.80
55026;DHT22;40925;45.666;18.994;2023-12-20T13:37:57;179.60;2252.80
55026;DHT22;40925;45.666;18.994;2023-12-20T13:40:23;179.90;2252.80
55026;DHT22;40925;45.666;18.994;2023-12-20T13:42:49;179.90;2252.80
55026;DHT22;40925;45.666;18.994;2023-12-20T13:45:18;180.00;2252.80
55026;DHT22;40925;45.666;18.994;2023-12-20T13:47:44;180.00;2252.80
55026;DHT22;40925;45.666;18.994;2023-12-20T13:50:10;179.90;2252.80
55026;DHT22;40925;45.666;18.994;2023-12-20T13:52:35;179.80;2252.80
55026;DHT22;40925;45.666;18.994;2023-12-20T13:55:01;179.50;2252.80
55026;DHT22;40925;45.666;18.994;2023-12-20T13:57:27;179.20;2252.80
55026;DHT22;40925;45.666;18.994;2023-12-20T13:59:58;154.40;2252.80
55026;DHT22;40925;45.666;18.994;2023-12-20T14:02:23;154.20;2252.80
55026;DHT22;40925;45.666;18.994;2023-12-20T14:04:50;154.10;2252.80
55026;DHT22;40925;45.666;18.994;2023-12-20T14:07:15;154.00;2252.80
55026;DHT22;40925;45.666;18.994;2023-12-20T14:09:41;154.00;2252.80
55026;DHT22;40925;45.666;18.994;2023-12-20T14:12:14;154.00;2252.80
55026;DHT22;40925;45.666;18.994;2023-12-20T14:14:40;153.90;2252.80
55026;DHT22;40925;45.666;18.994;2023-12-20T14:17:06;153.80;2252.80
55026;DHT22;40925;45.666;18.994;2023-12-20T14:19:32;153.70;2252.80
55026;DHT22;40925;45.666;18.994;2023-12-20T14:21:58;153.60;2252.80
55026;DHT22;40925;45.666;18.994;2023-12-20T14:24:27;128.90;2252.80
55026;DHT22;40925;45.666;18.994;2023-12-20T14:26:52;128.90;2252.80
55026;DHT22;40925;45.666;18.994;2023-12-20T14:29:18;128.60;2252.80
55026;DHT22;40925;45.666;18.994;2023-12-20T14:31:44;128.40;2252.80
55026;DHT22;40925;45.666;18.994;2023-12-20T14:34:09;128.10;2252.80
55026;DHT22;40925;45.666;18.994;2023-12-20T14:36:37;103.20;2227.20
55026;DHT22;40925;45.666;18.994;2023-12-20T14:39:03;103.30;2227.20
55026;DHT22;40925;45.666;18.994;2023-12-20T14:41:30;103.20;2227.20
55026;DHT22;40925;45.666;18.994;2023-12-20T14:43:56;103.10;2227.20
55026;DHT22;40925;45.666;18.994;2023-12-20T14:46:21;103.10;2227.20
55026;DHT22;40925;45.666;18.994;2023-12-20T14:48:47;103.00;2227.20
55026;DHT22;40925;45.666;18.994;2023-12-20T14:51:13;102.90;2227.20
55026;DHT22;40925;45.666;18.994;2023-12-20T14:53:39;103.00;2227.20